sensor_id;sensor_type;location;lat;lon;timestamp;pressure;altitude;pressure_sealevel;temperature;humidity
22755;BME280;11544;42.020;23.094;2024-03-23T00:54:02;97259.94;;;6.57;87.08
22755;BME280;11544;42.020;23.094;2024-03-23T00:56:29;97260.41;;;6.31;88.87
22755;BME280;11544;42.020;23.094;2024-03-23T00:58:55;97257.78;;;6.81;88.04
22755;BME280;11544;42.020;23.094;2024-03-23T01:01:21;97258.19;;;7.03;87.46
22755;BME280;11544;42.020;23.094;2024-03-23T01:03:47;97259.06;;;6.56;89.07
22755;BME280;11544;42.020;23.094;2024-03-23T01:06:13;97255.41;;;6.22;91.54
22755;BME280;11544;42.020;23.094;2024-03-23T01:08:38;97261.59;;;6.11;93.43
22755;BME280;11544;42.020;23.094;2024-03-23T01:11:04;97262.69;;;5.98;95.00
22755;BME280;11544;42.020;23.094;2024-03-23T01:13:30;97253.59;;;6.27;95.35
22755;BME280;11544;42.020;23.094;2024-03-23T01:15:56;97253.19;;;5.99;95.72
22755;BME280;11544;42.020;23.094;2024-03-23T01:18:23;97270.22;;;5.56;100.00
22755;BME280;11544;42.020;23.094;2024-03-23T01:20:50;97264.84;;;6.24;97.71
22755;BME280;11544;42.020;23.094;2024-03-23T01:23:16;97261.50;;;6.18;95.44
22755;BME280;11544;42.020;23.094;2024-03-23T01:25:42;97263.84;;;5.77;98.71
22755;BME280;11544;42.020;23.094;2024-03-23T01:28:08;97265.75;;;5.66;98.99
22755;BME280;11544;42.020;23.094;2024-03-23T01:30:34;97261.66;;;6.08;98.28
22755;BME280;11544;42.020;23.094;2024-03-23T01:33:01;97258.28;;;5.46;100.00
22755;BME280;11544;42.020;23.094;2024-03-23T01:35:28;97260.06;;;5.41;100.00
22755;BME280;11544;42.020;23.094;2024-03-23T01:37:54;97264.44;;;5.36;100.00
22755;BME280;11544;42.020;23.094;2024-03-23T01:40:20;97263.91;;;5.74;100.00
22755;BME280;11544;42.020;23.094;2024-03-23T01:42:56;97265.09;;;5.50;100.00
22755;BME280;11544;42.020;23.094;2024-03-23T01:45:22;97259.44;;;5.25;100.00
22755;BME280;11544;42.020;23.094;2024-03-23T01:47:50;97263.81;;;5.20;100.00
22755;BME280;11544;42.020;23.094;2024-03-23T01:50:17;97258.00;;;5.02;100.00
22755;BME280;11544;42.020;23.094;2024-03-23T01:52:43;97259.41;;;5.26;100.00
22755;BME280;11544;42.020;23.094;2024-03-23T01:55:10;97259.88;;;5.56;100.00
22755;BME280;11544;42.020;23.094;2024-03-23T01:57:56;97254.97;;;5.36;100.00
22755;BME280;11544;42.020;23.094;2024-03-23T02:00:23;97256.19;;;5.11;100.00
22755;BME280;11544;42.020;23.094;2024-03-23T02:02:49;97258.59;;;5.23;100.00
22755;BME280;11544;42.020;23.094;2024-03-23T02:05:15;97264.69;;;5.17;100.00
22755;BME280;11544;42.020;23.094;2024-03-23T02:07:42;97268.06;;;5.25;100.00
22755;BME280;11544;42.020;23.094;2024-03-23T02:10:10;97269.00;;;5.17;100.00
22755;BME280;11544;42.020;23.094;2024-03-23T02:12:36;97271.63;;;5.15;100.00
22755;BME280;11544;42.020;23.094;2024-03-23T02:15:02;97263.00;;;5.16;100.00
22755;BME280;11544;42.020;23.094;2024-03-23T02:17:30;97266.66;;;5.01;100.00
22755;BME280;11544;42.020;23.094;2024-03-23T02:19:57;97266.66;;;5.01;100.00
22755;BME280;11544;42.020;23.094;2024-03-23T02:22:23;97267.72;;;4.83;100.00
22755;BME280;11544;42.020;23.094;2024-03-23T02:24:48;97272.38;;;5.23;100.00
22755;BME280;11544;42.020;23.094;2024-03-23T02:27:14;97266.38;;;5.21;100.00
22755;BME280;11544;42.020;23.094;2024-03-23T02:29:40;97281.41;;;4.92;100.00
22755;BME280;11544;42.020;23.094;2024-03-23T02:32:06;97272.53;;;5.71;100.00
22755;BME280;11544;42.020;23.094;2024-03-23T02:34:35;97271.69;;;5.72;100.00
22755;BME280;11544;42.020;23.094;2024-03-23T02:37:01;97279.00;;;6.05;99.33
22755;BME280;11544;42.020;23.094;2024-03-23T02:39:27;97274.06;;;5.86;96.01
22755;BME280;11544;42.020;23.094;2024-03-23T02:41:53;97269.00;;;5.17;100.00
22755;BME280;11544;42.020;23.094;2024-03-23T02:44:19;97272.31;;;5.29;100.00
22755;BME280;11544;42.020;23.094;2024-03-23T02:46:45;97269.13;;;5.07;100.00
22755;BME280;11544;42.020;23.094;2024-03-23T02:49:10;97272.72;;;4.99;100.00
22755;BME280;11544;42.020;23.094;2024-03-23T02:51:36;97280.53;;;4.91;100.00
22755;BME280;11544;42.020;23.094;2024-03-23T02:54:02;97272.50;;;5.14;100.00
22755;BME280;11544;42.020;23.094;2024-03-23T02:56:28;97274.22;;;5.15;100.00
22755;BME280;11544;42.020;23.094;2024-03-23T02:58:54;97276.59;;;5.29;100.00
22755;BME280;11544;42.020;23.094;2024-03-23T03:01:19;97276.75;;;5.20;100.00
22755;BME280;11544;42.020;23.094;2024-03-23T03:03:45;97279.94;;;5.39;100.00
22755;BME280;11544;42.020;23.094;2024-03-23T03:06:11;97281.97;;;5.15;100.00
22755;BME280;11544;42.020;23.094;2024-03-23T03:08:37;97277.03;;;4.97;100.00
22755;BME280;11544;42.020;23.094;2024-03-23T03:11:03;97277.72;;;5.11;100.00
22755;BME280;11544;42.020;23.094;2024-03-23T03:13:29;97275.13;;;5.09;100.00
22755;BME280;11544;42.020;23.094;2024-03-23T03:15:55;97280.41;;;5.03;100.00
22755;BME280;11544;42.020;23.094;2024-03-23T03:18:20;97282.19;;;4.97;100.00
22755;BME280;11544;42.020;23.094;2024-03-23T03:20:47;97293.94;;;4.47;100.00
22755;BME280;11544;42.020;23.094;2024-03-23T03:23:12;97291.16;;;4.65;100.00
22755;BME280;11544;42.020;23.094;2024-03-23T03:25:38;97287.84;;;4.51;100.00
22755;BME280;11544;42.020;23.094;2024-03-23T03:28:04;97293.81;;;4.59;100.00
22755;BME280;11544;42.020;23.094;2024-03-23T03:30:30;97290.31;;;4.64;100.00
22755;BME280;11544;42.020;23.094;2024-03-23T03:32:56;97283.44;;;4.62;100.00
22755;BME280;11544;42.020;23.094;2024-03-23T03:35:22;97285.09;;;4.71;100.00
22755;BME280;11544;42.020;23.094;2024-03-23T03:37:48;97282.56;;;4.63;100.00
22755;BME280;11544;42.020;23.094;2024-03-23T03:40:14;97280.94;;;4.54;100.00
22755;BME280;11544;42.020;23.094;2024-03-23T03:42:43;97282.41;;;4.77;100.00
22755;BME280;11544;42.020;23.094;2024-03-23T03:45:10;97289.72;;;4.36;100.00
22755;BME280;11544;42.020;23.094;2024-03-23T03:47:35;97284.38;;;4.53;100.00
22755;BME280;11544;42.020;23.094;2024-03-23T03:50:02;97291.84;;;4.79;100.00
22755;BME280;11544;42.020;23.094;2024-03-23T03:52:28;97291.00;;;4.82;100.00
22755;BME280;11544;42.020;23.094;2024-03-23T03:55:01;97289.25;;;4.82;100.00
22755;BME280;11544;42.020;23.094;2024-03-23T03:57:31;97284.34;;;4.61;100.00
22755;BME280;11544;42.020;23.094;2024-03-23T03:59:57;97286.16;;;4.48;100.00
22755;BME280;11544;42.020;23.094;2024-03-23T04:02:22;97287.81;;;4.58;100.00
22755;BME280;11544;42.020;23.094;2024-03-23T04:04:48;97287.00;;;4.52;100.00
22755;BME280;11544;42.020;23.094;2024-03-23T04:07:14;97289.50;;;4.59;100.00
22755;BME280;11544;42.020;23.094;2024-03-23T04:09:40;97299.19;;;4.37;100.00
22755;BME280;11544;42.020;23.094;2024-03-23T04:12:06;97299.91;;;4.52;100.00
22755;BME280;11544;42.020;23.094;2024-03-23T04:14:32;97292.34;;;4.33;100.00
22755;BME280;11544;42.020;23.094;2024-03-23T04:16:58;97297.69;;;4.12;100.00
22755;BME280;11544;42.020;23.094;2024-03-23T04:19:25;97302.72;;;4.27;100.00
22755;BME280;11544;42.020;23.094;2024-03-23T04:21:50;97313.09;;;4.21;100.00
22755;BME280;11544;42.020;23.094;2024-03-23T04:24:16;97312.28;;;4.16;100.00
22755;BME280;11544;42.020;23.094;2024-03-23T04:26:45;97304.44;;;4.25;100.00
22755;BME280;11544;42.020;23.094;2024-03-23T04:29:11;97306.94;;;4.37;100.00
22755;BME280;11544;42.020;23.094;2024-03-23T04:31:38;97310.97;;;4.63;100.00
22755;BME280;11544;42.020;23.094;2024-03-23T04:34:04;97315.56;;;4.32;100.00
22755;BME280;11544;42.020;23.094;2024-03-23T04:36:33;97310.59;;;4.10;100.00
22755;BME280;11544;42.020;23.094;2024-03-23T04:39:00;97313.19;;;4.12;100.00
22755;BME280;11544;42.020;23.094;2024-03-23T04:41:26;97310.59;;;4.10;100.00
22755;BME280;11544;42.020;23.094;2024-03-23T04:43:52;97307.41;;;6.57;100.00
22755;BME280;11544;42.020;23.094;2024-03-23T04:46:18;97318.22;;;7.65;100.00
22755;BME280;11544;42.020;23.094;2024-03-23T04:48:44;97321.19;;;8.60;100.00
22755;BME280;11544;42.020;23.094;2024-03-23T04:51:10;97300.47;;;9.79;100.00
22755;BME280;11544;42.020;23.094;2024-03-23T04:53:39;97313.63;;;5.94;100.00
22755;BME280;11544;42.020;23.094;2024-03-23T04:56:05;97317.22;;;5.21;100.00
22755;BME280;11544;42.020;23.094;2024-03-23T04:58:31;97315.28;;;4.62;100.00
22755;BME280;11544;42.020;23.094;2024-03-23T05:00:57;97310.38;;;4.36;100.00
22755;BME280;11544;42.020;23.094;2024-03-23T05:03:23;97314.94;;;4.96;100.00
22755;BME280;11544;42.020;23.094;2024-03-23T05:05:50;97316.63;;;4.97;100.00
22755;BME280;11544;42.020;23.094;2024-03-23T05:08:16;97316.47;;;5.09;100.00
22755;BME280;11544;42.020;23.094;2024-03-23T05:10:42;97320.81;;;4.24;100.00
22755;BME280;11544;42.020;23.094;2024-03-23T05:13:09;97324.31;;;4.15;100.00
22755;BME280;11544;42.020;23.094;2024-03-23T05:15:35;97326.03;;;4.16;100.00
22755;BME280;11544;42.020;23.094;2024-03-23T05:18:01;97327.53;;;4.42;100.00
22755;BME280;11544;42.020;23.094;2024-03-23T05:20:27;97321.91;;;4.86;100.00
22755;BME280;11544;42.020;23.094;2024-03-23T05:22:55;97325.03;;;5.16;100.00
22755;BME280;11544;42.020;23.094;2024-03-23T05:25:21;97325.97;;;5.09;100.00
22755;BME280;11544;42.020;23.094;2024-03-23T05:27:47;97322.66;;;4.98;100.00
22755;BME280;11544;42.020;23.094;2024-03-23T05:30:12;97319.13;;;5.05;100.00
22755;BME280;11544;42.020;23.094;2024-03-23T05:32:38;97316.56;;;5.70;100.00
22755;BME280;11544;42.020;23.094;2024-03-23T05:35:07;97315.41;;;5.88;100.00
22755;BME280;11544;42.020;23.094;2024-03-23T05:37:33;97312.59;;;6.06;100.00
22755;BME280;11544;42.020;23.094;2024-03-23T05:40:00;97307.88;;;5.74;100.00
22755;BME280;11544;42.020;23.094;2024-03-23T05:42:26;97311.41;;;7.98;92.47
22755;BME280;11544;42.020;23.094;2024-03-23T05:44:52;97309.31;;;6.94;92.90
22755;BME280;11544;42.020;23.094;2024-03-23T05:47:18;97315.34;;;6.48;94.56
22755;BME280;11544;42.020;23.094;2024-03-23T05:49:43;97310.19;;;8.13;89.67
22755;BME280;11544;42.020;23.094;2024-03-23T05:52:12;97299.25;;;7.63;91.17
22755;BME280;11544;42.020;23.094;2024-03-23T05:54:38;97309.41;;;7.32;89.23
22755;BME280;11544;42.020;23.094;2024-03-23T05:57:04;97306.91;;;8.05;88.78
22755;BME280;11544;42.020;23.094;2024-03-23T05:59:33;97295.94;;;7.56;87.46
22755;BME280;11544;42.020;23.094;2024-03-23T06:01:59;97310.91;;;8.56;79.83
22755;BME280;11544;42.020;23.094;2024-03-23T06:04:24;97305.22;;;7.67;86.66
22755;BME280;11544;42.020;23.094;2024-03-23T06:06:51;97302.75;;;8.34;87.36
22755;BME280;11544;42.020;23.094;2024-03-23T06:09:20;97305.03;;;9.13;75.19
22755;BME280;11544;42.020;23.094;2024-03-23T06:11:46;97295.72;;;9.04;76.45
22755;BME280;11544;42.020;23.094;2024-03-23T06:14:12;97299.94;;;8.77;72.48
22755;BME280;11544;42.020;23.094;2024-03-23T06:16:38;97296.34;;;7.36;82.88
22755;BME280;11544;42.020;23.094;2024-03-23T06:19:03;97299.41;;;8.30;80.84
22755;BME280;11544;42.020;23.094;2024-03-23T06:21:32;97293.06;;;9.37;72.81
22755;BME280;11544;42.020;23.094;2024-03-23T06:23:58;97291.66;;;9.25;75.20
22755;BME280;11544;42.020;23.094;2024-03-23T06:26:24;97297.53;;;7.99;77.04
22755;BME280;11544;42.020;23.094;2024-03-23T06:28:50;97300.03;;;7.67;85.07
22755;BME280;11544;42.020;23.094;2024-03-23T06:31:16;97293.56;;;10.06;71.62
22755;BME280;11544;42.020;23.094;2024-03-23T06:33:42;97289.47;;;10.26;65.67
22755;BME280;11544;42.020;23.094;2024-03-23T06:36:11;97289.97;;;9.24;72.09
22755;BME280;11544;42.020;23.094;2024-03-23T06:38:40;97290.19;;;9.17;73.81
22755;BME280;11544;42.020;23.094;2024-03-23T06:41:06;97285.38;;;9.32;73.96
22755;BME280;11544;42.020;23.094;2024-03-23T06:43:32;97289.53;;;10.23;66.74
22755;BME280;11544;42.020;23.094;2024-03-23T06:45:58;97288.44;;;10.31;63.65
22755;BME280;11544;42.020;23.094;2024-03-23T06:48:24;97286.13;;;10.49;64.79
22755;BME280;11544;42.020;23.094;2024-03-23T06:50:55;97287.94;;;10.47;64.56
22755;BME280;11544;42.020;23.094;2024-03-23T06:53:21;97284.06;;;11.07;60.75
22755;BME280;11544;42.020;23.094;2024-03-23T06:55:51;97282.66;;;9.07;67.19
22755;BME280;11544;42.020;23.094;2024-03-23T06:58:18;97284.06;;;10.04;69.87
22755;BME280;11544;42.020;23.094;2024-03-23T07:00:44;97281.09;;;11.63;57.98
22755;BME280;11544;42.020;23.094;2024-03-23T07:03:10;97284.94;;;10.83;62.23
22755;BME280;11544;42.020;23.094;2024-03-23T07:05:36;97283.63;;;9.63;69.46
22755;BME280;11544;42.020;23.094;2024-03-23T07:08:02;97275.25;;;10.36;69.21
22755;BME280;11544;42.020;23.094;2024-03-23T07:10:28;97274.31;;;10.10;67.78
22755;BME280;11544;42.020;23.094;2024-03-23T07:12:54;97275.53;;;10.78;61.37
22755;BME280;11544;42.020;23.094;2024-03-23T07:15:20;97280.56;;;9.50;70.88
22755;BME280;11544;42.020;23.094;2024-03-23T07:17:48;97268.44;;;10.04;65.52
22755;BME280;11544;42.020;23.094;2024-03-23T07:20:14;97263.41;;;10.77;65.07
22755;BME280;11544;42.020;23.094;2024-03-23T07:22:40;97261.44;;;10.59;65.64
22755;BME280;11544;42.020;23.094;2024-03-23T07:25:06;97258.00;;;10.58;69.42
22755;BME280;11544;42.020;23.094;2024-03-23T07:27:33;97256.84;;;11.14;70.26
22755;BME280;11544;42.020;23.094;2024-03-23T07:29:59;97248.41;;;11.99;59.77
22755;BME280;11544;42.020;23.094;2024-03-23T07:32:26;97247.94;;;11.43;61.56
22755;BME280;11544;42.020;23.094;2024-03-23T07:34:52;97252.41;;;10.93;64.73
22755;BME280;11544;42.020;23.094;2024-03-23T07:37:18;97239.66;;;11.32;62.79
22755;BME280;11544;42.020;23.094;2024-03-23T07:39:44;97245.34;;;11.20;64.63
22755;BME280;11544;42.020;23.094;2024-03-23T07:42:10;97236.22;;;11.54;63.46
22755;BME280;11544;42.020;23.094;2024-03-23T07:44:36;97232.81;;;11.74;59.97
22755;BME280;11544;42.020;23.094;2024-03-23T07:47:03;97235.19;;;11.80;57.57
22755;BME280;11544;42.020;23.094;2024-03-23T07:49:29;97239.31;;;12.29;58.50
22755;BME280;11544;42.020;23.094;2024-03-23T07:51:55;97221.50;;;13.18;52.23
22755;BME280;11544;42.020;23.094;2024-03-23T07:54:21;97224.22;;;13.36;53.21
22755;BME280;11544;42.020;23.094;2024-03-23T07:56:47;97222.13;;;12.02;58.49
22755;BME280;11544;42.020;23.094;2024-03-23T07:59:12;97221.94;;;13.47;53.67
22755;BME280;11544;42.020;23.094;2024-03-23T08:01:38;97217.78;;;13.43;54.41
22755;BME280;11544;42.020;23.094;2024-03-23T08:04:05;97213.63;;;12.99;56.82
22755;BME280;11544;42.020;23.094;2024-03-23T08:06:31;97215.22;;;13.96;53.34
22755;BME280;11544;42.020;23.094;2024-03-23T08:08:58;97210.69;;;13.45;56.49
22755;BME280;11544;42.020;23.094;2024-03-23T08:11:31;97210.22;;;12.37;65.00
22755;BME280;11544;42.020;23.094;2024-03-23T08:13:57;97210.94;;;12.20;66.66
22755;BME280;11544;42.020;23.094;2024-03-23T08:16:24;97203.47;;;11.91;68.53
22755;BME280;11544;42.020;23.094;2024-03-23T08:18:53;97198.38;;;13.83;60.31
22755;BME280;11544;42.020;23.094;2024-03-23T08:21:21;97198.09;;;14.24;55.27
22755;BME280;11544;42.020;23.094;2024-03-23T08:23:46;97197.78;;;14.30;57.21
22755;BME280;11544;42.020;23.094;2024-03-23T08:26:15;97196.72;;;14.00;58.00
22755;BME280;11544;42.020;23.094;2024-03-23T08:28:41;97188.47;;;14.25;57.60
22755;BME280;11544;42.020;23.094;2024-03-23T08:31:08;97184.16;;;13.33;54.82
22755;BME280;11544;42.020;23.094;2024-03-23T08:33:34;97188.72;;;13.30;59.64
22755;BME280;11544;42.020;23.094;2024-03-23T08:36:02;97183.47;;;13.30;60.08
22755;BME280;11544;42.020;23.094;2024-03-23T08:38:28;97174.44;;;14.60;55.77
22755;BME280;11544;42.020;23.094;2024-03-23T08:40:58;97175.38;;;15.09;55.43
22755;BME280;11544;42.020;23.094;2024-03-23T08:43:24;97171.53;;;14.48;54.89
22755;BME280;11544;42.020;23.094;2024-03-23T08:45:50;97161.44;;;14.75;54.14
22755;BME280;11544;42.020;23.094;2024-03-23T08:48:18;97157.75;;;15.11;52.46
22755;BME280;11544;42.020;23.094;2024-03-23T08:50:46;97157.06;;;14.91;53.07
22755;BME280;11544;42.020;23.094;2024-03-23T08:53:13;97145.41;;;15.29;51.38
22755;BME280;11544;42.020;23.094;2024-03-23T08:55:38;97140.41;;;14.42;53.37
22755;BME280;11544;42.020;23.094;2024-03-23T08:58:04;97140.91;;;15.15;53.13
22755;BME280;11544;42.020;23.094;2024-03-23T09:00:34;97135.66;;;15.31;51.18
22755;BME280;11544;42.020;23.094;2024-03-23T09:03:00;97127.78;;;15.31;53.44
22755;BME280;11544;42.020;23.094;2024-03-23T09:05:27;97128.41;;;15.82;51.25
22755;BME280;11544;42.020;23.094;2024-03-23T09:07:54;97118.13;;;15.31;51.42
22755;BME280;11544;42.020;23.094;2024-03-23T09:10:20;97119.38;;;15.40;52.34
22755;BME280;11544;42.020;23.094;2024-03-23T09:12:46;97109.41;;;15.15;53.36
22755;BME280;11544;42.020;23.094;2024-03-23T09:15:12;97098.72;;;15.80;51.51
22755;BME280;11544;42.020;23.094;2024-03-23T09:17:37;97106.84;;;15.29;50.65
22755;BME280;11544;42.020;23.094;2024-03-23T09:20:04;97091.53;;;16.71;46.44
22755;BME280;11544;42.020;23.094;2024-03-23T09:22:30;97083.84;;;16.82;46.14
22755;BME280;11544;42.020;23.094;2024-03-23T09:24:56;97080.13;;;16.27;46.38
22755;BME280;11544;42.020;23.094;2024-03-23T09:27:21;97082.31;;;16.92;42.76
22755;BME280;11544;42.020;23.094;2024-03-23T09:29:47;97070.50;;;16.28;43.37
22755;BME280;11544;42.020;23.094;2024-03-23T09:32:13;97072.56;;;15.78;45.14
22755;BME280;11544;42.020;23.094;2024-03-23T09:34:39;97064.56;;;16.53;42.55
22755;BME280;11544;42.020;23.094;2024-03-23T09:37:05;97058.41;;;17.37;38.46
22755;BME280;11544;42.020;23.094;2024-03-23T09:39:31;97048.09;;;16.92;37.57
22755;BME280;11544;42.020;23.094;2024-03-23T09:41:58;97048.50;;;16.43;40.16
22755;BME280;11544;42.020;23.094;2024-03-23T09:44:24;97045.66;;;16.89;39.99
22755;BME280;11544;42.020;23.094;2024-03-23T09:46:51;97038.69;;;16.74;40.21
22755;BME280;11544;42.020;23.094;2024-03-23T09:49:18;97034.50;;;17.13;35.71
22755;BME280;11544;42.020;23.094;2024-03-23T09:51:43;97039.91;;;17.24;38.32
22755;BME280;11544;42.020;23.094;2024-03-23T09:54:09;97028.75;;;16.79;37.71
22755;BME280;11544;42.020;23.094;2024-03-23T09:56:35;97024.00;;;17.78;33.08
22755;BME280;11544;42.020;23.094;2024-03-23T09:59:02;97019.63;;;15.84;35.68
22755;BME280;11544;42.020;23.094;2024-03-23T10:01:31;97017.94;;;17.38;36.21
22755;BME280;11544;42.020;23.094;2024-03-23T10:03:57;97011.97;;;17.62;35.27
22755;BME280;11544;42.020;23.094;2024-03-23T10:06:23;97001.75;;;16.90;34.40
22755;BME280;11544;42.020;23.094;2024-03-23T10:08:53;97003.03;;;17.24;33.66
22755;BME280;11544;42.020;23.094;2024-03-23T10:11:20;96999.81;;;17.06;33.66
22755;BME280;11544;42.020;23.094;2024-03-23T10:13:47;96989.44;;;16.76;33.38
22755;BME280;11544;42.020;23.094;2024-03-23T10:16:21;96989.47;;;17.30;33.61
22755;BME280;11544;42.020;23.094;2024-03-23T10:18:47;96999.44;;;17.65;32.43
22755;BME280;11544;42.020;23.094;2024-03-23T10:21:14;96991.31;;;17.55;32.97
22755;BME280;11544;42.020;23.094;2024-03-23T10:23:42;96984.16;;;17.58;32.11
22755;BME280;11544;42.020;23.094;2024-03-23T10:28:58;96972.22;;;17.52;29.86
22755;BME280;11544;42.020;23.094;2024-03-23T10:31:30;96971.69;;;17.47;31.74
22755;BME280;11544;42.020;23.094;2024-03-23T10:33:56;96966.34;;;17.74;31.88
22755;BME280;11544;42.020;23.094;2024-03-23T10:36:23;96958.91;;;17.41;34.40
22755;BME280;11544;42.020;23.094;2024-03-23T10:38:54;96953.28;;;18.11;34.47
22755;BME280;11544;42.020;23.094;2024-03-23T10:41:20;96955.16;;;18.34;31.19
22755;BME280;11544;42.020;23.094;2024-03-23T10:43:48;96947.50;;;18.55;29.79
22755;BME280;11544;42.020;23.094;2024-03-23T10:46:14;96942.22;;;18.55;31.62
22755;BME280;11544;42.020;23.094;2024-03-23T10:48:40;96939.28;;;19.08;30.81
22755;BME280;11544;42.020;23.094;2024-03-23T10:51:10;96940.09;;;18.24;31.28
22755;BME280;11544;42.020;23.094;2024-03-23T10:53:36;96930.31;;;18.50;30.91
22755;BME280;11544;42.020;23.094;2024-03-23T10:56:05;96934.28;;;17.80;32.63
22755;BME280;11544;42.020;23.094;2024-03-23T10:58:49;96920.28;;;17.80;31.98
22755;BME280;11544;42.020;23.094;2024-03-23T11:01:15;96916.91;;;17.90;32.33
22755;BME280;11544;42.020;23.094;2024-03-23T11:03:45;96911.13;;;17.98;33.13
22755;BME280;11544;42.020;23.094;2024-03-23T11:06:34;96915.19;;;18.15;30.37
22755;BME280;11544;42.020;23.094;2024-03-23T11:09:00;96899.41;;;17.89;31.15
22755;BME280;11544;42.020;23.094;2024-03-23T11:11:26;96888.75;;;17.65;32.39
22755;BME280;11544;42.020;23.094;2024-03-23T11:13:54;96885.03;;;18.19;32.30
22755;BME280;11544;42.020;23.094;2024-03-23T11:16:24;96881.69;;;18.41;33.26
22755;BME280;11544;42.020;23.094;2024-03-23T11:18:53;96874.47;;;18.19;32.20
22755;BME280;11544;42.020;23.094;2024-03-23T11:21:54;96866.00;;;18.75;29.72
22755;BME280;11544;42.020;23.094;2024-03-23T11:24:21;96864.03;;;18.41;30.56
22755;BME280;11544;42.020;23.094;2024-03-23T11:26:48;96863.84;;;18.69;30.08
22755;BME280;11544;42.020;23.094;2024-03-23T11:29:16;96859.06;;;18.74;29.45
22755;BME280;11544;42.020;23.094;2024-03-23T11:31:50;96849.56;;;18.95;30.89
22755;BME280;11544;42.020;23.094;2024-03-23T11:34:17;96840.38;;;19.12;31.03
22755;BME280;11544;42.020;23.094;2024-03-23T11:36:44;96834.06;;;19.37;30.25
22755;BME280;11544;42.020;23.094;2024-03-23T11:39:18;96842.44;;;17.99;30.09
22755;BME280;11544;42.020;23.094;2024-03-23T11:41:51;96830.78;;;18.87;29.88
22755;BME280;11544;42.020;23.094;2024-03-23T11:44:22;96824.09;;;19.41;28.09
22755;BME280;11544;42.020;23.094;2024-03-23T11:46:48;96828.72;;;17.94;28.58
22755;BME280;11544;42.020;23.094;2024-03-23T11:49:28;96819.06;;;18.67;28.58
22755;BME280;11544;42.020;23.094;2024-03-23T11:51:56;96807.09;;;18.74;30.18
22755;BME280;11544;42.020;23.094;2024-03-23T11:54:23;96804.78;;;18.70;29.60
22755;BME280;11544;42.020;23.094;2024-03-23T11:56:59;96790.63;;;18.35;29.74
22755;BME280;11544;42.020;23.094;2024-03-23T11:59:32;96793.13;;;18.85;31.04
22755;BME280;11544;42.020;23.094;2024-03-23T12:01:59;96787.72;;;18.62;30.53
22755;BME280;11544;42.020;23.094;2024-03-23T12:04:28;96776.97;;;19.12;30.50
22755;BME280;11544;42.020;23.094;2024-03-23T12:07:17;96776.38;;;19.09;29.43
22755;BME280;11544;42.020;23.094;2024-03-23T12:10:05;96769.78;;;19.14;29.73
22755;BME280;11544;42.020;23.094;2024-03-23T12:12:34;96769.16;;;19.11;30.43
22755;BME280;11544;42.020;23.094;2024-03-23T12:15:07;96756.81;;;19.56;30.01
22755;BME280;11544;42.020;23.094;2024-03-23T12:17:34;96749.22;;;19.07;30.08
22755;BME280;11544;42.020;23.094;2024-03-23T12:20:01;96750.56;;;19.12;30.87
22755;BME280;11544;42.020;23.094;2024-03-23T12:22:28;96742.03;;;19.31;29.74
22755;BME280;11544;42.020;23.094;2024-03-23T12:24:55;96749.72;;;19.45;30.07
22755;BME280;11544;42.020;23.094;2024-03-23T12:27:21;96744.75;;;18.60;29.77
22755;BME280;11544;42.020;23.094;2024-03-23T12:29:47;96739.09;;;18.43;29.68
22755;BME280;11544;42.020;23.094;2024-03-23T12:32:14;96728.09;;;18.25;29.78
22755;BME280;11544;42.020;23.094;2024-03-23T12:34:40;96734.09;;;18.97;29.42
22755;BME280;11544;42.020;23.094;2024-03-23T12:37:07;96729.16;;;18.93;29.71
22755;BME280;11544;42.020;23.094;2024-03-23T12:39:33;96725.81;;;19.24;30.37
22755;BME280;11544;42.020;23.094;2024-03-23T12:42:01;96714.16;;;19.61;29.21
22755;BME280;11544;42.020;23.094;2024-03-23T12:44:28;96710.06;;;19.00;29.08
22755;BME280;11544;42.020;23.094;2024-03-23T12:46:54;96704.78;;;18.89;29.44
22755;BME280;11544;42.020;23.094;2024-03-23T12:49:20;96705.88;;;19.32;30.37
22755;BME280;11544;42.020;23.094;2024-03-23T12:51:56;96696.13;;;19.43;28.48
22755;BME280;11544;42.020;23.094;2024-03-23T12:54:23;96695.31;;;19.43;28.44
22755;BME280;11544;42.020;23.094;2024-03-23T12:56:49;96697.69;;;19.57;27.51
22755;BME280;11544;42.020;23.094;2024-03-23T12:59:15;96693.59;;;19.64;27.02
22755;BME280;11544;42.020;23.094;2024-03-23T13:01:42;96687.59;;;19.62;28.29
22755;BME280;11544;42.020;23.094;2024-03-23T13:04:09;96688.47;;;19.52;26.69
22755;BME280;11544;42.020;23.094;2024-03-23T13:06:35;96675.88;;;19.21;26.65
22755;BME280;11544;42.020;23.094;2024-03-23T13:09:02;96674.88;;;19.45;25.86
22755;BME280;11544;42.020;23.094;2024-03-23T13:11:29;96677.06;;;19.17;26.18
22755;BME280;11544;42.020;23.094;2024-03-23T13:13:55;96664.31;;;19.34;26.89
22755;BME280;11544;42.020;23.094;2024-03-23T13:16:21;96665.03;;;19.47;26.93
22755;BME280;11544;42.020;23.094;2024-03-23T13:18:47;96656.78;;;20.16;27.08
22755;BME280;11544;42.020;23.094;2024-03-23T13:21:12;96654.59;;;20.21;25.86
22755;BME280;11544;42.020;23.094;2024-03-23T13:23:38;96649.75;;;19.73;26.84
22755;BME280;11544;42.020;23.094;2024-03-23T13:26:07;96650.41;;;20.40;25.48
22755;BME280;11544;42.020;23.094;2024-03-23T13:28:33;96645.50;;;20.14;26.23
22755;BME280;11544;42.020;23.094;2024-03-23T13:31:01;96633.34;;;19.79;25.46
22755;BME280;11544;42.020;23.094;2024-03-23T13:33:32;96630.69;;;19.47;25.70
22755;BME280;11544;42.020;23.094;2024-03-23T13:35:58;96633.44;;;19.45;27.33
22755;BME280;11544;42.020;23.094;2024-03-23T13:38:24;96626.81;;;19.95;26.15
22755;BME280;11544;42.020;23.094;2024-03-23T13:43:20;96622.84;;;19.45;25.90
22755;BME280;11544;42.020;23.094;2024-03-23T13:45:47;96614.91;;;19.57;25.97
22755;BME280;11544;42.020;23.094;2024-03-23T13:48:19;96616.81;;;19.98;25.94